createdAt,value
2022-07-25T00:01:00.460Z,42.10
2022-07-25T00:03:53.917Z,42.40
2022-07-25T00:06:52.252Z,42.30
2022-07-25T00:09:40.768Z,41.90
2022-07-25T00:12:57.790Z,41.20
2022-07-25T00:15:54.181Z,39.90
2022-07-25T00:18:43.432Z,41.10
2022-07-25T00:21:38.078Z,41.20
2022-07-25T00:24:38.492Z,41.90
2022-07-25T00:27:13.094Z,40.80
2022-07-25T00:29:58.002Z,42.60
2022-07-25T00:32:59.070Z,44.00
2022-07-25T00:35:49.756Z,44.80
2022-07-25T00:38:48.745Z,45.30
2022-07-25T00:42:31.934Z,46.10
2022-07-25T00:45:57.757Z,46.80
2022-07-25T00:49:04.410Z,47.50
2022-07-25T00:52:36.840Z,47.20
2022-07-25T00:59:21.372Z,46.60
2022-07-25T01:02:10.263Z,44.40
2022-07-25T01:05:39.427Z,44.90
2022-07-25T01:12:44.484Z,43.70
2022-07-25T01:15:50.247Z,44.80
2022-07-25T01:22:22.574Z,45.50
2022-07-25T01:25:20.925Z,45.50
2022-07-25T01:31:58.551Z,46.60
2022-07-25T01:34:53.996Z,47.10
2022-07-25T01:37:35.839Z,47.00
2022-07-25T01:40:35.719Z,47.10
2022-07-25T01:43:52.661Z,46.90
2022-07-25T01:47:19.873Z,47.00
2022-07-25T01:50:26.486Z,47.90
2022-07-25T02:06:55.787Z,46.60
2022-07-25T02:16:28.736Z,45.80
2022-07-25T02:19:44.662Z,46.30
2022-07-25T02:22:39.581Z,46.80
2022-07-25T02:25:40.724Z,46.90
2022-07-25T02:32:16.876Z,46.50
2022-07-25T02:41:53.718Z,49.40
2022-07-25T02:45:02.112Z,48.80
2022-07-25T02:48:46.444Z,49.30
2022-07-25T02:52:03.806Z,49.40
2022-07-25T02:55:09.686Z,49.70
2022-07-25T03:02:09.696Z,49.70
2022-07-25T03:05:39.750Z,49.80
2022-07-25T03:09:06.456Z,49.90
2022-07-25T03:20:20.607Z,49.40
2022-07-25T03:23:42.507Z,49.20
2022-07-25T03:27:31.583Z,49.70
2022-07-25T03:31:02.192Z,49.10
2022-07-25T03:34:31.644Z,51.10
2022-07-25T03:37:28.425Z,51.20
2022-07-25T03:40:17.268Z,50.90
2022-07-25T03:43:36.158Z,50.20
2022-07-25T03:46:35.956Z,50.20
2022-07-25T03:49:24.769Z,50.20
2022-07-25T03:52:32.713Z,50.20
2022-07-25T04:04:50.406Z,51.80
2022-07-25T04:07:45.154Z,51.80
2022-07-25T04:10:44.833Z,52.00
2022-07-25T04:16:52.533Z,50.20
2022-07-25T04:19:52.621Z,50.20
2022-07-25T04:22:47.149Z,51.10
2022-07-25T04:26:20.347Z,51.60
2022-07-25T04:29:24.661Z,52.30
2022-07-25T04:32:34.113Z,52.40
2022-07-25T05:15:04.000Z,51.10
2022-07-25T05:18:57.448Z,51.30
2022-07-25T05:22:04.746Z,50.70
2022-07-25T05:28:41.475Z,49.70
2022-07-25T05:40:09.836Z,48.50
2022-07-25T05:42:52.517Z,46.40
2022-07-25T05:45:41.346Z,45.10
2022-07-25T05:48:16.462Z,43.90
2022-07-25T05:51:05.371Z,44.00
2022-07-25T05:54:01.486Z,42.60
2022-07-25T05:56:40.185Z,42.20
2022-07-25T05:59:29.652Z,42.90
2022-07-25T06:02:12.406Z,42.20
2022-07-25T06:17:11.069Z,41.10
2022-07-25T06:40:29.274Z,40.50
2022-07-25T06:43:07.245Z,41.30
2022-07-25T06:45:47.927Z,39.40
2022-07-25T06:48:19.502Z,38.90
2022-07-25T06:50:52.765Z,38.30
2022-07-25T06:53:24.082Z,37.70
2022-07-25T06:56:06.945Z,37.90
2022-07-25T06:58:50.454Z,36.70
2022-07-25T07:01:45.054Z,36.60
2022-07-25T07:04:52.100Z,36.00
2022-07-25T07:08:20.005Z,33.90
2022-07-25T07:11:06.548Z,33.80
2022-07-25T07:13:35.986Z,34.40
2022-07-25T07:16:08.123Z,33.80
2022-07-25T07:18:39.303Z,33.10
2022-07-25T07:21:21.388Z,34.50
2022-07-25T07:23:53.746Z,32.60
2022-07-25T07:26:31.540Z,31.40
2022-07-25T07:29:03.409Z,30.80
2022-07-25T07:31:42.401Z,31.00
2022-07-25T07:34:26.607Z,31.00
2022-07-25T07:37:13.063Z,31.50
2022-07-25T07:40:08.161Z,30.40
2022-07-25T07:43:07.755Z,30.10
2022-07-25T07:46:05.218Z,29.70
2022-07-25T07:49:39.124Z,29.90
2022-07-25T07:56:29.336Z,28.80
2022-07-25T08:00:05.001Z,28.60
2022-07-25T08:06:47.266Z,27.10
2022-07-25T08:10:06.951Z,26.20
2022-07-25T08:13:21.406Z,27.50
2022-07-25T08:16:32.358Z,26.90
2022-07-25T08:20:09.378Z,25.20
2022-07-25T08:23:09.272Z,26.10
2022-07-25T08:56:17.409Z,25.00
2022-07-25T09:58:24.680Z,21.80
2022-07-25T10:01:32.400Z,20.50
2022-07-25T10:04:37.569Z,19.80
2022-07-25T10:08:02.261Z,20.20
2022-07-25T10:13:49.401Z,18.50
2022-07-25T10:17:11.698Z,19.20
2022-07-25T10:20:02.581Z,17.80
2022-07-25T10:22:58.778Z,16.20
2022-07-25T10:25:29.339Z,15.70
2022-07-25T10:28:37.156Z,16.50
2022-07-25T10:31:50.373Z,16.30
2022-07-25T10:34:46.404Z,16.20
2022-07-25T10:37:52.970Z,16.30
2022-07-25T10:40:43.741Z,17.20
2022-07-25T10:43:35.007Z,17.90
2022-07-25T10:46:31.156Z,18.80
2022-07-25T10:49:32.065Z,17.80
2022-07-25T10:52:20.531Z,18.10
2022-07-25T10:54:58.978Z,18.60
2022-07-25T10:58:01.275Z,19.00
2022-07-25T11:00:41.134Z,19.30
2022-07-25T11:03:54.292Z,19.60
2022-07-25T11:06:49.775Z,18.90
2022-07-25T11:09:40.333Z,19.70
2022-07-25T11:12:37.563Z,18.60
2022-07-25T11:15:42.195Z,18.50
2022-07-25T11:18:33.039Z,18.60
2022-07-25T11:21:42.382Z,18.30
2022-07-25T11:24:54.277Z,18.80
2022-07-25T11:27:50.379Z,19.30
2022-07-25T11:30:43.004Z,19.40
2022-07-25T11:36:56.898Z,19.30
2022-07-25T11:39:59.958Z,18.40
2022-07-25T11:43:25.993Z,17.10
2022-07-25T11:46:21.373Z,17.50
2022-07-25T11:49:32.612Z,18.10
2022-07-25T11:52:41.085Z,18.20
2022-07-25T11:55:57.503Z,19.50
2022-07-25T11:58:55.912Z,18.30
2022-07-25T12:05:05.619Z,19.60
2022-07-25T12:07:51.399Z,18.90
2022-07-25T12:11:08.912Z,18.30
2022-07-25T12:13:52.315Z,18.10
2022-07-25T12:16:45.392Z,17.70
2022-07-25T12:19:39.360Z,16.60
2022-07-25T12:22:32.777Z,17.00
2022-07-25T12:25:16.097Z,17.00
2022-07-25T12:28:19.017Z,17.60
2022-07-25T12:31:02.280Z,17.60
2022-07-25T12:33:55.912Z,18.70
2022-07-25T12:36:41.309Z,17.70
2022-07-25T12:39:19.401Z,18.50
2022-07-25T12:42:19.950Z,17.60
2022-07-25T12:45:21.780Z,18.50
2022-07-25T12:48:07.566Z,19.20
2022-07-25T12:51:12.538Z,18.30
2022-07-25T12:53:58.714Z,17.90
2022-07-25T12:56:36.986Z,17.70
2022-07-25T12:59:12.809Z,17.20
2022-07-25T13:01:59.507Z,17.90
2022-07-25T13:04:38.526Z,18.20
2022-07-25T13:07:25.012Z,18.20
2022-07-25T13:10:08.307Z,17.70
2022-07-25T13:12:56.996Z,17.70
2022-07-25T13:15:39.437Z,17.60
2022-07-25T13:18:18.413Z,18.30
2022-07-25T13:21:19.501Z,18.20
2022-07-25T13:23:56.172Z,18.20
2022-07-25T13:26:33.015Z,17.90
2022-07-25T13:29:22.112Z,19.30
2022-07-25T13:32:26.408Z,19.10
2022-07-25T13:35:11.692Z,19.50
2022-07-25T13:38:18.605Z,19.70
2022-07-25T13:41:04.484Z,19.40
2022-07-25T13:44:03.162Z,19.50
2022-07-25T13:46:50.413Z,19.20
2022-07-25T13:49:29.600Z,19.30
2022-07-25T13:52:08.593Z,20.00
2022-07-25T13:55:08.372Z,19.80
2022-07-25T13:57:56.047Z,19.70
2022-07-25T14:00:55.634Z,19.40
2022-07-25T14:06:29.909Z,19.30
2022-07-25T14:09:25.790Z,19.10
2022-07-25T14:12:20.382Z,18.50
2022-07-25T14:15:02.576Z,18.20
2022-07-25T14:17:37.989Z,18.60
2022-07-25T14:20:14.895Z,18.50
2022-07-25T14:22:51.793Z,18.00
2022-07-25T14:25:44.476Z,18.50
2022-07-25T14:28:31.967Z,19.20
2022-07-25T14:31:21.672Z,19.50
2022-07-25T14:33:57.191Z,19.10
2022-07-25T14:36:42.235Z,18.80
2022-07-25T14:39:15.104Z,19.20
2022-07-25T14:42:03.724Z,19.40
2022-07-25T14:44:41.637Z,19.60
2022-07-25T14:47:27.394Z,20.10
2022-07-25T14:50:08.990Z,19.80
2022-07-25T14:53:23.340Z,20.30
2022-07-25T14:56:05.636Z,20.70
2022-07-25T14:59:02.134Z,20.70
2022-07-25T15:01:44.366Z,20.00
2022-07-25T15:04:36.996Z,19.50
2022-07-25T15:07:28.449Z,19.50
2022-07-25T15:10:20.360Z,19.90
2022-07-25T15:13:32.704Z,19.20
2022-07-25T15:16:14.739Z,19.20
2022-07-25T15:19:13.315Z,19.70
2022-07-25T15:21:51.503Z,18.80
2022-07-25T15:25:17.812Z,18.00
2022-07-25T15:28:04.464Z,19.00
2022-07-25T15:30:53.732Z,19.00
2022-07-25T15:33:35.080Z,18.70
2022-07-25T15:36:35.381Z,18.40
2022-07-25T15:39:27.887Z,18.60
2022-07-25T15:42:18.807Z,19.20
2022-07-25T15:45:33.940Z,19.50
2022-07-25T15:48:22.011Z,19.50
2022-07-25T15:51:13.888Z,19.30
2022-07-25T15:53:51.355Z,19.70
2022-07-25T15:56:39.416Z,20.20
2022-07-25T15:59:14.926Z,19.90
2022-07-25T16:02:04.695Z,19.10
2022-07-25T16:04:40.907Z,19.70
2022-07-25T16:07:20.520Z,19.70
2022-07-25T16:09:53.122Z,20.20
2022-07-25T16:16:04.886Z,20.50
2022-07-25T16:19:03.963Z,20.10
2022-07-25T16:21:52.555Z,19.60
2022-07-25T16:30:57.772Z,19.90
2022-07-25T16:33:52.986Z,18.80
2022-07-25T16:36:56.150Z,18.60
2022-07-25T16:40:10.304Z,18.70
2022-07-25T16:43:04.915Z,17.80
2022-07-25T16:45:56.143Z,18.50
2022-07-25T16:48:36.773Z,18.80
2022-07-25T16:51:22.211Z,19.10
2022-07-25T16:54:09.488Z,19.30
2022-07-25T16:56:59.824Z,19.80
2022-07-25T16:59:52.794Z,19.50
2022-07-25T17:03:03.253Z,19.70
2022-07-25T17:05:37.503Z,19.80
2022-07-25T17:08:23.277Z,20.00
2022-07-25T17:11:21.755Z,20.40
2022-07-25T17:14:03.766Z,20.90
2022-07-25T17:16:57.456Z,20.70
2022-07-25T17:19:46.474Z,21.40
2022-07-25T17:22:48.955Z,21.30
2022-07-25T17:59:06.074Z,20.80
2022-07-25T18:02:01.419Z,21.10
2022-07-25T18:12:07.215Z,21.00
2022-07-25T18:18:41.098Z,21.10
2022-07-25T18:21:48.762Z,21.00
2022-07-25T18:24:39.018Z,21.30
2022-07-25T18:27:27.004Z,21.80
2022-07-25T18:30:38.086Z,21.60
2022-07-25T18:33:44.701Z,21.40
2022-07-25T18:37:02.424Z,21.70
2022-07-25T18:39:54.749Z,22.10
2022-07-25T18:42:47.433Z,22.10
2022-07-25T18:45:28.918Z,21.80
2022-07-25T18:48:37.301Z,21.30
2022-07-25T18:51:26.279Z,21.40
2022-07-25T18:54:28.728Z,21.40
2022-07-25T18:57:07.309Z,21.50
2022-07-25T18:59:47.879Z,21.70
2022-07-25T19:02:38.528Z,21.40
2022-07-25T19:05:33.840Z,20.70
2022-07-25T19:08:48.391Z,20.30
2022-07-25T19:30:53.465Z,20.00
2022-07-25T19:36:33.324Z,21.90
2022-07-25T20:36:17.680Z,26.80
2022-07-25T20:39:18.781Z,26.90
2022-07-25T20:42:17.616Z,27.10
2022-07-25T20:45:14.316Z,26.20
2022-07-25T20:48:16.414Z,25.80
2022-07-25T20:51:05.386Z,25.60
2022-07-25T20:53:56.503Z,26.60
2022-07-25T20:56:50.286Z,25.50
2022-07-25T20:59:43.672Z,25.60
2022-07-25T21:02:39.330Z,26.10
2022-07-25T21:05:20.356Z,25.50
2022-07-25T21:07:58.660Z,26.30
2022-07-25T21:10:32.452Z,26.10
2022-07-25T21:13:21.350Z,25.50
2022-07-25T21:16:03.054Z,25.90
2022-07-25T21:19:08.677Z,25.80
2022-07-25T21:21:44.868Z,24.70
2022-07-25T21:24:24.861Z,24.80
2022-07-25T21:26:59.181Z,24.70
2022-07-25T21:29:39.235Z,25.10
2022-07-25T21:32:20.082Z,25.30
2022-07-25T21:35:00.945Z,25.70
2022-07-25T21:37:37.712Z,25.90
2022-07-25T21:40:20.114Z,25.80
2022-07-25T21:43:03.491Z,25.70
2022-07-25T21:46:15.197Z,25.60
2022-07-25T21:49:40.826Z,25.80
2022-07-25T21:52:15.544Z,25.60
2022-07-25T21:55:25.591Z,25.40
2022-07-25T21:58:58.428Z,25.70
2022-07-25T22:01:36.203Z,25.90
2022-07-25T22:04:26.295Z,26.00
2022-07-25T22:07:19.967Z,26.30
2022-07-25T22:12:55.012Z,27.80
2022-07-25T22:15:54.751Z,28.00
2022-07-25T22:18:43.719Z,27.80
2022-07-25T22:21:35.875Z,27.60
2022-07-25T22:24:27.773Z,27.30
2022-07-25T22:27:17.228Z,27.40
2022-07-25T22:29:54.953Z,26.50
2022-07-25T22:32:37.134Z,26.60
2022-07-25T22:35:10.102Z,27.30
2022-07-25T22:40:52.467Z,27.90
2022-07-25T22:43:57.529Z,28.00
2022-07-25T22:46:35.500Z,27.50
2022-07-25T22:49:42.697Z,27.40
2022-07-25T22:52:18.642Z,27.10
2022-07-25T22:57:44.903Z,27.20
2022-07-25T23:00:25.673Z,27.20
2022-07-25T23:03:04.011Z,27.10
2022-07-25T23:05:47.115Z,27.30
2022-07-25T23:08:25.685Z,27.60
2022-07-25T23:10:59.016Z,28.00
2022-07-25T23:13:38.593Z,27.80
2022-07-25T23:16:23.824Z,27.80
2022-07-25T23:19:02.620Z,27.80
2022-07-25T23:21:40.003Z,28.20
2022-07-25T23:24:20.087Z,28.40
2022-07-25T23:26:58.635Z,28.50
2022-07-25T23:29:38.918Z,29.10
2022-07-25T23:32:21.398Z,30.00
2022-07-25T23:35:00.140Z,31.40
2022-07-25T23:37:38.193Z,31.90
2022-07-25T23:40:15.144Z,31.90
2022-07-25T23:42:53.063Z,32.00
2022-07-25T23:45:30.174Z,31.70
2022-07-25T23:48:06.729Z,31.80
2022-07-25T23:50:44.960Z,31.40
2022-07-25T23:53:24.531Z,31.80
2022-07-25T23:56:00.552Z,29.90
2022-07-25T23:58:37.804Z,29.50
